Time;durP1;ratioP1;P1;durP2;ratioP2;P2;SDS_P1;SDS_P2;PMS_P1;PMS_P2;Temp;Humidity;BMP_temperature;BMP_pressure;BME280_temperature;BME280_humidity;BME280_pressure;Samples;Min_cycle;Max_cycle;Signal;HPM_P1;HPM_P2
2021/12/08 00:00:23;;;;;;;8.02;3.97;;;-4.80;99.90;;;-5.54;94.04;97194.00;173186;28;1321;-75
2021/12/08 00:00:40;;;;;;;7.65;4.06;;;-4.80;99.90;;;-5.48;94.06;97195.41;172475;28;1365;-75
2021/12/08 00:00:54;;;;;;;6.71;3.95;;;-4.80;99.90;;;-5.50;93.78;97202.56;173198;28;1657;-76
2021/12/08 00:01:06;;;;;;;10.61;3.89;;;-4.80;99.90;;;-5.50;93.95;97195.53;172527;28;1445;-74
2021/12/08 00:01:20;;;;;;;10.36;4.35;;;-4.80;99.90;;;-5.53;93.73;97195.69;172509;28;1366;-75
2021/12/08 00:01:26;;;;;;;7.64;4.46;;;-4.80;99.90;;;-5.44;93.95;97208.22;172554;28;1206;-75
2021/12/08 00:01:32;;;;;;;6.30;4.20;;;-4.80;99.90;;;-5.50;94.30;97192.91;171652;28;1295;-75
2021/12/08 00:01:38;;;;;;;6.50;3.83;;;-4.80;99.90;;;-5.53;94.04;97189.63;172523;28;1385;-75
2021/12/08 00:01:44;;;;;;;7.40;4.10;;;-4.90;99.90;;;-5.46;93.82;97196.16;171764;28;1510;-75
2021/12/08 00:01:50;;;;;;;9.32;4.63;;;-4.80;99.90;;;-5.48;94.22;97195.41;171853;28;1321;-75
2021/12/08 00:01:56;;;;;;;9.50;4.90;;;-4.80;99.90;;;-5.53;94.06;97192.22;172016;28;1136;-75
2021/12/08 00:02:03;;;;;;;9.60;4.72;;;-4.80;99.90;;;-5.57;94.38;97175.84;172506;28;1330;-75
2021/12/08 00:02:15;;;;;;;9.78;4.96;;;-4.80;99.90;;;-5.50;93.90;97189.44;173039;28;1545;-75
2021/12/08 00:02:21;;;;;;;9.73;4.76;;;-4.80;99.90;;;-5.55;94.31;97184.50;173750;28;1469;-75
2021/12/08 00:02:27;;;;;;;10.20;4.53;;;-4.80;99.90;;;-5.58;94.50;97175.00;173870;28;1581;-75
2021/12/08 00:02:33;;;;;;;10.05;4.72;;;-4.90;99.90;;;-5.61;94.49;97177.00;171960;28;1158;-75
2021/12/08 00:02:39;;;;;;;10.30;4.75;;;-4.90;99.90;;;-5.49;94.38;97194.56;172506;28;935;-75
2021/12/08 00:02:45;;;;;;;9.27;4.50;;;-4.80;99.90;;;-5.55;94.21;97187.09;171854;28;1366;-75
2021/12/08 00:02:51;;;;;;;8.50;4.60;;;-4.80;99.90;;;-5.54;94.32;97187.94;173191;28;961;-75
2021/12/08 00:03:03;;;;;;;8.07;4.57;;;-4.80;99.90;;;-5.52;94.03;97186.06;172528;28;1200;-75
2021/12/08 00:03:13;;;;;;;7.97;4.87;;;-4.80;99.90;;;-5.48;93.97;97191.00;171829;28;1309;-75
2021/12/08 00:03:20;;;;;;;8.64;5.05;;;-4.80;99.90;;;-5.50;94.13;97185.03;172372;28;1121;-75
2021/12/08 00:03:30;;;;;;;8.02;5.26;;;-4.80;99.90;;;-5.53;93.75;97179.97;172941;28;1799;-75
2021/12/08 00:03:38;;;;;;;8.41;5.13;;;-4.80;99.90;;;-5.48;94.30;97201.50;172476;28;1354;-75
2021/12/08 00:03:44;;;;;;;8.70;4.97;;;-4.80;99.90;;;-5.47;93.89;97192.69;172016;28;1445;-75
2021/12/08 00:03:52;;;;;;;9.13;4.87;;;-4.80;99.90;;;-5.49;94.66;97189.31;172412;28;1472;-75
2021/12/08 00:03:58;;;;;;;9.07;4.70;;;-4.80;99.90;;;-5.44;93.99;97200.38;173053;28;1281;-75
2021/12/08 00:04:04;;;;;;;8.24;4.56;;;-4.80;99.90;;;-5.53;94.33;97192.22;173057;28;1477;-75
2021/12/08 00:04:11;;;;;;;7.05;4.38;;;-4.80;99.90;;;-5.49;94.02;97196.38;173565;28;1474;-75
2021/12/08 00:04:16;;;;;;;7.07;4.70;;;-4.80;99.90;;;-5.64;93.94;97171.94;173333;28;943;-74
2021/12/08 00:04:22;;;;;;;7.20;4.65;;;-4.80;99.90;;;-5.51;94.13;97191.22;172158;28;1341;-75
2021/12/08 00:04:28;;;;;;;7.90;4.45;;;-4.90;99.90;;;-5.58;94.26;97190.75;172295;28;1411;-75
2021/12/08 00:04:35;;;;;;;8.80;4.40;;;-4.80;99.90;;;-5.56;94.48;97195.91;171971;28;1005;-75
2021/12/08 00:04:42;;;;;;;9.17;4.37;;;-4.80;99.90;;;-5.52;94.12;97197.38;172448;28;1386;-76
2021/12/08 00:04:48;;;;;;;10.33;4.47;;;-4.80;99.90;;;-5.58;93.91;97192.53;171899;28;856;-75
2021/12/08 00:04:54;;;;;;;10.38;4.72;;;-4.80;99.90;;;-5.61;94.06;97183.09;173157;28;1117;-75
2021/12/08 00:04:59;;;;;;;10.23;5.40;;;-4.90;99.90;;;-5.67;93.66;97174.75;172092;28;1347;-75
2021/12/08 00:05:07;;;;;;;10.60;5.72;;;-4.80;99.90;;;-5.60;94.06;97194.41;173175;28;1174;-75
2021/12/08 00:05:18;;;;;;;11.13;5.60;;;-4.80;99.90;;;-5.59;93.93;97196.94;172417;28;1254;-75
2021/12/08 00:05:25;;;;;;;9.04;4.90;;;-4.80;99.90;;;-5.56;94.16;97201.16;172621;28;1099;-76
2021/12/08 00:05:32;;;;;;;8.12;3.95;;;-4.90;99.90;;;-5.54;94.16;97207.13;173091;28;1083;-76
2021/12/08 00:05:41;;;;;;;6.57;3.50;;;-4.80;99.90;;;-5.64;93.82;97185.03;172487;28;1342;-76
2021/12/08 00:05:47;;;;;;;5.72;3.63;;;-4.90;99.90;;;-5.60;93.51;97194.41;172478;28;1486;-76
2021/12/08 00:05:53;;;;;;;6.26;3.78;;;-4.90;99.90;;;-5.81;93.91;97156.44;172539;28;1010;-76
2021/12/08 00:06:00;;;;;;;6.40;3.80;;;-4.90;99.90;;;-5.57;93.83;97199.47;172425;28;1079;-75
2021/12/08 00:06:07;;;;;;;6.93;4.30;;;-4.90;99.90;;;-5.63;94.07;97192.81;173270;28;910;-75
2021/12/08 00:06:13;;;;;;;7.83;4.60;;;-4.90;99.90;;;-5.64;93.96;97192.91;172831;28;1319;-75
2021/12/08 00:06:20;;;;;;;7.93;4.70;;;-4.90;99.90;;;-5.67;93.75;97190.47;173181;28;1361;-75
2021/12/08 00:06:26;;;;;;;7.62;4.86;;;-4.90;99.90;;;-5.56;93.78;97203.78;173143;28;867;-75
2021/12/08 00:06:32;;;;;;;6.80;4.70;;;-4.90;99.90;;;-5.75;93.77;97177.03;172749;28;1576;-75
2021/12/08 00:06:38;;;;;;;6.87;4.40;;;-4.90;99.90;;;-5.67;93.68;97186.09;173799;28;1287;-75
2021/12/08 00:06:44;;;;;;;6.22;3.97;;;-4.90;99.90;;;-5.63;94.18;97189.34;174640;28;1562;-75
2021/12/08 00:06:50;;;;;;;6.30;3.85;;;-4.90;99.90;;;-5.67;94.06;97186.09;173233;28;1045;-75
2021/12/08 00:06:56;;;;;;;6.30;3.67;;;-4.90;99.90;;;-5.75;94.06;97163.91;173156;28;1327;-75
2021/12/08 00:07:03;;;;;;;6.77;3.93;;;-4.90;99.90;;;-5.71;93.80;97178.50;172953;28;1227;-75
2021/12/08 00:07:10;;;;;;;8.17;4.15;;;-4.90;99.90;;;-5.66;93.77;97184.31;172458;28;1443;-75
2021/12/08 00:07:16;;;;;;;9.57;4.50;;;-4.90;99.90;;;-5.76;93.73;97164.84;171855;28;1410;-75
2021/12/08 00:07:22;;;;;;;9.18;4.53;;;-4.90;99.90;;;-5.57;93.95;97200.31;173927;28;1224;-75
2021/12/08 00:07:28;;;;;;;9.18;4.65;;;-4.90;99.90;;;-6.03;93.79;97122.88;172561;28;1035;-75
2021/12/08 00:07:34;;;;;;;9.87;4.50;;;-4.90;99.90;;;-5.64;93.99;97185.88;172478;28;1253;-75
2021/12/08 00:07:41;;;;;;;8.15;4.35;;;-4.90;99.90;;;-5.62;93.79;97185.78;172435;28;1581;-75
2021/12/08 00:07:49;;;;;;;6.87;4.13;;;-4.90;99.90;;;-5.68;93.85;97175.69;172541;28;1410;-75
2021/12/08 00:07:57;;;;;;;6.73;4.03;;;-4.90;99.90;;;-5.52;93.96;97202.63;172608;28;1819;-75
2021/12/08 00:08:06;;;;;;;5.53;3.97;;;-4.90;99.90;;;-5.58;93.79;97193.38;173879;28;1290;-75
2021/12/08 00:08:17;;;;;;;6.40;4.11;;;-4.90;99.90;;;-5.61;93.92;97184.88;171883;28;1211;-75
2021/12/08 00:08:28;;;;;;;7.52;4.33;;;-4.90;99.90;;;-5.68;94.20;97175.69;172471;28;1396;-75
2021/12/08 00:08:35;;;;;;;10.16;4.64;;;-4.90;99.90;;;-5.60;94.44;97189.19;174552;28;1400;-75
2021/12/08 00:08:59;;;;;;;11.80;4.92;;;-4.90;99.90;;;-5.58;94.19;97195.16;173236;28;1489;-75
2021/12/08 00:09:29;;;;;;;11.88;4.67;;;-4.90;99.90;;;-5.55;94.42;97191.50;171997;28;1418;-75
2021/12/08 00:09:48;;;;;;;9.05;4.34;;;-4.90;99.90;;;-5.51;94.77;97198.25;171860;28;1472;-75
2021/12/08 00:10:12;;;;;;;8.95;4.69;;;-4.80;99.90;;;-5.51;94.89;97201.72;172541;28;1216;-75
2021/12/08 00:13:01;;;;;;;9.29;4.68;;;-4.90;99.90;;;-5.57;94.67;97195.06;172347;28;1191;-75
2021/12/08 00:13:05;;;;;;;7.78;4.13;;;-5.00;99.90;;;-5.65;93.99;97204.34;172307;28;1453;-75
2021/12/08 00:13:11;;;;;;;8.59;3.84;;;-5.00;99.90;;;-5.72;94.39;97193.38;173247;28;1195;-75
2021/12/08 00:13:19;;;;;;;7.30;3.80;;;-5.00;99.90;;;-5.67;94.15;97195.72;173424;28;1351;-75
2021/12/08 00:13:31;;;;;;;7.50;3.93;;;-5.00;99.90;;;-5.67;93.93;97198.34;173155;28;1247;-75
2021/12/08 00:13:38;;;;;;;6.65;3.76;;;-5.00;99.90;;;-5.83;94.35;97171.38;173066;28;1393;-75
2021/12/08 00:13:44;;;;;;;6.83;3.82;;;-5.00;99.90;;;-5.95;94.20;97154.66;172292;28;1812;-75
2021/12/08 00:13:51;;;;;;;6.32;3.85;;;-5.00;99.90;;;-5.68;94.03;97191.41;171664;28;1450;-75
2021/12/08 00:13:57;;;;;;;6.53;4.20;;;-5.00;99.90;;;-5.76;94.26;97180.56;171785;28;1060;-75
2021/12/08 00:14:04;;;;;;;7.05;4.45;;;-5.00;99.90;;;-5.79;94.18;97183.38;172280;28;1354;-75
2021/12/08 00:14:10;;;;;;;8.53;4.77;;;-5.00;99.90;;;-5.74;94.27;97186.53;172945;28;1371;-75
2021/12/08 00:14:16;;;;;;;8.07;4.60;;;-5.00;99.90;;;-5.74;94.13;97184.75;173010;28;1454;-75
2021/12/08 00:14:22;;;;;;;8.43;4.63;;;-5.00;99.90;;;-5.71;94.42;97189.00;174169;28;1005;-75
2021/12/08 00:14:28;;;;;;;8.65;4.70;;;-5.00;99.90;;;-5.65;94.04;97206.97;172715;28;1361;-75
2021/12/08 00:14:34;;;;;;;9.52;4.93;;;-5.00;99.90;;;-5.71;94.09;97191.63;173072;28;1106;-75
2021/12/08 00:14:40;;;;;;;8.30;4.85;;;-5.00;99.90;;;-5.67;94.19;97198.34;172084;28;1291;-75
2021/12/08 00:14:46;;;;;;;8.60;5.10;;;-5.00;99.90;;;-5.69;93.96;97187.94;172398;28;1816;-75
2021/12/08 00:14:52;;;;;;;8.45;4.95;;;-5.00;99.90;;;-5.74;94.12;97183.91;173122;28;1972;-75
2021/12/08 00:14:59;;;;;;;7.97;4.57;;;-5.00;99.90;;;-5.72;94.30;97184.69;172552;28;1242;-75
2021/12/08 00:15:05;;;;;;;7.67;4.23;;;-5.00;99.90;;;-5.65;94.11;97199.91;172918;28;1286;-75
2021/12/08 00:15:12;;;;;;;7.70;4.12;;;-5.00;99.90;;;-5.62;94.57;97201.53;172358;28;1339;-75
2021/12/08 00:15:18;;;;;;;7.57;4.03;;;-5.00;99.90;;;-5.79;94.16;97172.88;173558;28;1341;-75
2021/12/08 00:15:24;;;;;;;7.50;4.03;;;-5.00;99.90;;;-5.67;94.09;97187.84;172480;28;1430;-75
2021/12/08 00:15:39;;;;;;;8.30;4.03;;;-5.00;99.90;;;-5.62;93.75;97202.38;171494;28;1354;-75
2021/12/08 00:15:52;;;;;;;7.13;3.88;;;-5.00;99.90;;;-5.71;94.08;97186.38;172120;28;1332;-75
2021/12/08 00:16:04;;;;;;;7.72;3.83;;;-5.00;99.90;;;-5.63;93.95;97199.84;172171;28;1224;-75
2021/12/08 00:16:13;;;;;;;7.36;3.88;;;-5.00;99.90;;;-5.70;94.21;97188.06;173473;28;2337;-75
2021/12/08 00:16:19;;;;;;;7.03;4.00;;;-5.00;99.90;;;-5.73;94.15;97188.22;171784;28;896;-75
2021/12/08 00:16:25;;;;;;;7.03;4.17;;;-5.00;99.90;;;-5.85;94.01;97171.47;172464;28;1325;-75
2021/12/08 00:16:31;;;;;;;7.50;4.30;;;-5.00;99.90;;;-5.84;94.27;97164.47;171820;28;896;-74
2021/12/08 00:16:36;;;;;;;8.35;4.47;;;-5.00;99.90;;;-5.88;94.28;97166.47;172539;28;1251;-74
2021/12/08 00:16:43;;;;;;;9.00;4.32;;;-5.00;99.90;;;-5.67;93.84;97193.09;173075;28;1580;-75
2021/12/08 00:16:49;;;;;;;8.92;4.36;;;-5.00;99.90;;;-5.71;93.97;97196.84;173242;28;1536;-75
2021/12/08 00:16:55;;;;;;;9.97;4.80;;;-5.00;99.90;;;-5.64;93.97;97200.75;172255;28;1522;-75
2021/12/08 00:17:02;;;;;;;9.33;4.70;;;-5.00;99.90;;;-5.66;93.83;97198.25;172661;28;1492;-75
2021/12/08 00:17:08;;;;;;;8.47;4.60;;;-5.00;99.90;;;-5.66;93.81;97200.03;173876;28;863;-75
2021/12/08 00:17:14;;;;;;;8.85;4.80;;;-5.00;99.90;;;-5.80;94.10;97176.47;173179;28;1008;-75
2021/12/08 00:17:20;;;;;;;8.88;4.68;;;-5.00;99.90;;;-5.77;94.03;97182.34;173795;28;1982;-76
2021/12/08 00:17:26;;;;;;;8.03;4.07;;;-5.00;99.90;;;-5.67;93.83;97201.81;172987;28;1443;-76
2021/12/08 00:17:32;;;;;;;8.77;4.45;;;-5.00;99.90;;;-5.65;93.87;97201.72;172995;28;1089;-75
2021/12/08 00:17:38;;;;;;;8.85;4.65;;;-5.00;99.90;;;-5.90;93.75;97160.47;173239;28;911;-75
2021/12/08 00:17:44;;;;;;;8.20;4.88;;;-5.00;99.90;;;-5.76;93.70;97188.44;172632;28;1391;-75
2021/12/08 00:17:50;;;;;;;7.90;4.75;;;-5.00;99.90;;;-5.65;93.91;97199.09;173094;28;1226;-75
2021/12/08 00:17:56;;;;;;;9.43;4.85;;;-5.00;99.90;;;-5.69;93.96;97198.44;172553;28;1208;-75
2021/12/08 00:18:10;;;;;;;8.85;4.43;;;-5.00;99.90;;;-5.86;94.12;97171.59;171713;28;1565;-75
2021/12/08 00:18:26;;;;;;;9.43;4.38;;;-5.00;99.90;;;-5.74;93.96;97197.88;172417;28;1479;-76
2021/12/08 00:18:34;;;;;;;9.01;4.18;;;-5.00;99.90;;;-5.75;93.84;97190.94;172350;28;1336;-76
2021/12/08 00:18:50;;;;;;;7.70;3.90;;;-5.00;99.90;;;-5.76;94.15;97196.31;173838;28;1041;-76
2021/12/08 00:18:58;;;;;;;8.27;4.57;;;-5.00;99.90;;;-5.75;93.89;97193.56;172827;28;1256;-76
2021/12/08 00:19:04;;;;;;;8.15;4.92;;;-5.10;99.90;;;-5.77;93.79;97192.84;172340;28;1101;-75
2021/12/08 00:19:10;;;;;;;9.45;5.10;;;-5.00;99.90;;;-5.73;93.86;97190.84;173768;28;1374;-75
2021/12/08 00:19:16;;;;;;;10.57;5.10;;;-5.00;99.90;;;-5.72;93.80;97198.63;173575;28;1162;-75
2021/12/08 00:19:23;;;;;;;11.10;5.38;;;-5.00;99.90;;;-5.72;93.93;97195.16;172522;28;1058;-75
2021/12/08 00:19:30;;;;;;;10.57;4.77;;;-5.00;99.90;;;-5.79;93.97;97185.97;173442;28;1377;-75
2021/12/08 00:19:36;;;;;;;9.77;5.10;;;-5.00;99.90;;;-5.99;93.95;97153.19;172356;28;1481;-75
2021/12/08 00:19:42;;;;;;;8.27;4.90;;;-5.00;99.90;;;-5.83;93.83;97177.47;172024;28;1165;-75
2021/12/08 00:19:49;;;;;;;7.38;4.50;;;-5.00;99.90;;;-5.79;93.87;97181.59;172590;28;1633;-75
2021/12/08 00:20:00;;;;;;;6.30;4.16;;;-5.00;99.90;;;-5.66;93.93;97194.78;172376;28;1346;-75
2021/12/08 00:20:07;;;;;;;7.09;4.19;;;-5.00;99.90;;;-5.97;93.75;97140.84;172410;28;1343;-75
2021/12/08 00:20:13;;;;;;;6.90;3.93;;;-4.90;99.90;;;-5.62;93.97;97196.28;172427;28;1300;-75
2021/12/08 00:20:21;;;;;;;6.72;4.00;;;-4.90;99.90;;;-5.68;93.80;97186.16;171860;28;923;-75
2021/12/08 00:20:31;;;;;;;8.63;4.17;;;-4.90;99.90;;;-5.65;94.10;97188.63;172429;28;1426;-75
2021/12/08 00:20:40;;;;;;;8.04;3.92;;;-4.90;99.90;;;-5.61;93.86;97187.47;172878;28;1285;-75
2021/12/08 00:20:47;;;;;;;8.19;3.79;;;-4.90;99.90;;;-5.63;94.21;97186.72;171776;28;1279;-75
2021/12/08 00:20:59;;;;;;;10.43;4.30;;;-4.90;99.90;;;-5.75;93.78;97167.34;171772;28;1481;-75
2021/12/08 00:21:10;;;;;;;10.06;4.34;;;-4.90;99.90;;;-5.57;94.26;97188.97;174494;28;1609;-75
2021/12/08 00:21:18;;;;;;;10.13;4.41;;;-4.80;99.90;;;-5.46;94.03;97201.41;172501;28;1540;-74
2021/12/08 00:21:27;;;;;;;8.66;4.19;;;-4.80;99.90;;;-5.46;93.88;97191.78;173207;28;1185;-75
2021/12/08 00:21:33;;;;;;;8.32;4.43;;;-4.80;99.90;;;-5.56;94.23;97185.41;173274;28;1480;-75
2021/12/08 00:21:39;;;;;;;8.98;4.85;;;-4.80;99.90;;;-5.54;94.13;97180.09;174701;28;1187;-75
2021/12/08 00:21:44;;;;;;;8.35;4.63;;;-4.80;99.90;;;-5.60;93.98;97181.31;172596;28;1339;-75
2021/12/08 00:21:50;;;;;;;7.28;4.47;;;-4.80;99.90;;;-5.45;94.41;97200.47;172003;28;1489;-75
2021/12/08 00:21:57;;;;;;;7.82;4.72;;;-4.80;99.90;;;-5.47;94.27;97200.56;173154;28;1519;-75
2021/12/08 00:22:03;;;;;;;8.35;4.60;;;-4.80;99.90;;;-5.63;94.35;97176.25;173262;28;1386;-75
2021/12/08 00:22:09;;;;;;;7.63;4.37;;;-4.80;99.90;;;-5.54;94.25;97185.34;172605;28;974;-75
2021/12/08 00:22:15;;;;;;;8.40;4.55;;;-4.80;99.90;;;-5.61;94.50;97172.59;171407;28;942;-75
2021/12/08 00:22:22;;;;;;;10.15;4.75;;;-4.80;99.90;;;-5.48;94.25;97191.00;172267;28;939;-75
2021/12/08 00:22:28;;;;;;;9.30;4.55;;;-4.80;99.90;;;-5.66;94.63;97164.19;172517;28;884;-75
2021/12/08 00:22:34;;;;;;;9.60;4.57;;;-4.80;99.90;;;-5.47;94.44;97202.34;172626;28;930;-75
2021/12/08 00:22:40;;;;;;;9.73;4.30;;;-4.80;99.90;;;-5.52;94.47;97186.06;174213;28;1457;-75
2021/12/08 00:22:46;;;;;;;8.80;4.10;;;-4.80;99.90;;;-5.50;94.31;97195.53;173600;28;1809;-75
2021/12/08 00:22:52;;;;;;;10.27;4.28;;;-4.80;99.90;;;-5.61;94.49;97180.47;172652;28;1730;-75
2021/12/08 00:23:01;;;;;;;9.77;4.20;;;-4.80;99.90;;;-5.59;94.54;97180.34;172888;28;1382;-75
2021/12/08 00:23:09;;;;;;;9.13;4.27;;;-4.80;99.90;;;-5.55;94.72;97192.34;172128;28;1323;-75
2021/12/08 00:23:16;;;;;;;9.43;4.58;;;-4.80;99.90;;;-5.55;94.71;97194.97;172564;28;1130;-75
2021/12/08 00:23:24;;;;;;;7.70;4.68;;;-4.80;99.90;;;-5.57;94.59;97200.31;172709;28;1324;-75
2021/12/08 00:23:30;;;;;;;7.06;4.64;;;-4.80;99.90;;;-5.67;94.44;97182.63;172001;28;1337;-75
2021/12/08 00:23:36;;;;;;;7.07;4.57;;;-4.90;99.90;;;-5.57;94.52;97191.59;172247;28;1278;-75
2021/12/08 00:23:43;;;;;;;8.63;4.53;;;-4.90;99.90;;;-5.58;94.47;97192.53;172732;28;1104;-75
2021/12/08 00:23:49;;;;;;;8.84;4.34;;;-4.90;99.90;;;-5.58;94.42;97190.75;173511;28;1321;-75
2021/12/08 00:23:55;;;;;;;10.05;4.13;;;-4.90;99.90;;;-5.57;94.43;97197.69;174342;28;1137;-75
2021/12/08 00:24:01;;;;;;;10.83;4.33;;;-4.90;99.90;;;-5.55;94.23;97200.22;173937;28;1420;-75
2021/12/08 00:24:07;;;;;;;11.07;4.50;;;-4.90;99.90;;;-5.95;94.24;97136.31;173802;28;1286;-76
2021/12/08 00:24:13;;;;;;;8.80;4.20;;;-4.90;99.90;;;-5.67;94.10;97182.63;173274;28;1430;-76
2021/12/08 00:24:20;;;;;;;8.47;4.33;;;-4.90;99.90;;;-5.95;94.36;97133.69;172762;28;1071;-75
2021/12/08 00:24:26;;;;;;;7.17;4.40;;;-4.90;99.90;;;-5.71;94.63;97174.09;172601;28;1381;-75
2021/12/08 00:24:32;;;;;;;6.68;4.32;;;-4.90;99.90;;;-5.58;94.50;97203.84;173041;28;1332;-75
2021/12/08 00:24:39;;;;;;;6.80;4.70;;;-4.90;99.90;;;-5.69;94.25;97184.47;173607;28;1038;-75
2021/12/08 00:24:45;;;;;;;8.33;4.73;;;-4.90;99.90;;;-5.74;94.37;97170.81;172430;28;1028;-75
2021/12/08 00:24:51;;;;;;;8.60;4.47;;;-4.90;99.90;;;-5.67;94.50;97180.00;171506;28;1358;-74
2021/12/08 00:24:56;;;;;;;9.35;4.50;;;-4.90;99.90;;;-5.67;94.70;97186.09;172534;28;2196;-75
2021/12/08 00:25:03;;;;;;;9.02;4.35;;;-4.90;99.90;;;-5.62;94.13;97201.53;172924;28;1023;-75
2021/12/08 00:25:09;;;;;;;8.90;3.50;;;-4.90;99.90;;;-5.66;94.57;97192.16;172489;28;1240;-75
2021/12/08 00:25:15;;;;;;;8.80;4.10;;;-4.90;99.90;;;-5.63;94.51;97197.22;172148;28;1021;-75
2021/12/08 00:25:22;;;;;;;8.35;4.40;;;-5.00;99.90;;;-5.69;94.51;97187.94;172578;28;1069;-75
2021/12/08 00:25:29;;;;;;;7.96;4.42;;;-4.90;99.90;;;-5.84;94.38;97170.53;172803;28;1533;-75
2021/12/08 00:25:37;;;;;;;7.30;4.50;;;-4.90;99.90;;;-5.76;94.79;97175.31;173293;28;860;-75
2021/12/08 00:25:44;;;;;;;7.60;4.37;;;-5.00;99.90;;;-5.64;94.31;97198.13;173669;28;1510;-75
2021/12/08 00:25:51;;;;;;;7.54;4.14;;;-5.00;99.90;;;-5.75;94.36;97177.03;172927;28;1468;-76
2021/12/08 00:25:57;;;;;;;8.18;4.24;;;-5.00;99.90;;;-5.69;94.42;97193.19;174086;28;1229;-76
2021/12/08 00:26:04;;;;;;;8.73;4.27;;;-5.00;99.90;;;-5.68;94.38;97194.88;172363;28;1314;-76
2021/12/08 00:26:11;;;;;;;8.82;4.28;;;-5.00;99.90;;;-5.79;94.49;97172.88;172386;28;1375;-76
2021/12/08 00:26:17;;;;;;;8.68;4.20;;;-5.00;99.90;;;-5.70;94.51;97186.25;173716;28;1422;-75
2021/12/08 00:26:23;;;;;;;8.45;4.00;;;-5.00;99.90;;;-5.74;94.43;97187.38;173863;28;1082;-75
2021/12/08 00:26:29;;;;;;;9.18;4.07;;;-5.00;99.90;;;-5.75;94.44;97180.47;173418;28;1365;-75
2021/12/08 00:26:36;;;;;;;9.73;4.50;;;-5.00;99.90;;;-5.78;94.55;97175.41;173401;28;1058;-75
2021/12/08 00:26:42;;;;;;;11.23;5.10;;;-5.00;99.90;;;-5.73;94.75;97188.22;173939;28;874;-75
2021/12/08 00:26:48;;;;;;;9.98;5.03;;;-5.00;99.90;;;-5.73;94.61;97180.38;172915;28;1416;-75
2021/12/08 00:26:56;;;;;;;9.02;4.95;;;-5.00;99.90;;;-5.70;94.36;97180.19;173640;28;1618;-75
2021/12/08 00:27:02;;;;;;;7.93;4.53;;;-5.00;99.90;;;-5.74;94.72;97176.91;173009;28;1083;-75
2021/12/08 00:27:08;;;;;;;6.30;4.00;;;-5.00;99.90;;;-5.79;94.64;97165.88;171737;28;1503;-75
2021/12/08 00:27:14;;;;;;;7.17;4.13;;;-5.00;99.90;;;-5.72;94.71;97182.06;172092;28;1019;-75
2021/12/08 00:27:20;;;;;;;8.38;4.25;;;-5.00;99.90;;;-5.66;94.28;97194.78;172420;28;1236;-75
2021/12/08 00:27:26;;;;;;;8.93;4.60;;;-5.00;99.90;;;-5.87;94.48;97162.06;172478;28;1096;-75
2021/12/08 00:27:33;;;;;;;9.47;4.70;;;-5.00;99.90;;;-5.76;94.36;97176.19;173119;28;1183;-75
2021/12/08 00:27:39;;;;;;;8.64;4.70;;;-5.00;99.90;;;-5.69;94.29;97182.69;173720;28;1069;-75
2021/12/08 00:27:45;;;;;;;8.13;4.50;;;-5.00;99.90;;;-5.64;94.48;97195.53;174543;28;1002;-75
2021/12/08 00:27:51;;;;;;;7.80;4.47;;;-5.00;99.90;;;-5.66;94.46;97189.56;173931;28;1435;-75
2021/12/08 00:28:00;;;;;;;7.97;4.40;;;-5.00;99.90;;;-5.79;94.79;97160.63;172450;28;1167;-75
2021/12/08 00:28:07;;;;;;;7.70;4.50;;;-5.00;99.90;;;-5.69;94.49;97182.69;172451;28;1059;-75
2021/12/08 00:28:14;;;;;;;7.40;4.58;;;-5.00;99.90;;;-5.67;94.77;97188.69;171741;28;1590;-75
2021/12/08 00:28:22;;;;;;;6.33;4.37;;;-5.00;99.90;;;-5.85;94.78;97158.38;171581;28;955;-75
2021/12/08 00:28:28;;;;;;;6.24;4.08;;;-5.00;99.90;;;-5.73;94.81;97177.75;171651;28;1340;-75
2021/12/08 00:28:35;;;;;;;6.50;4.03;;;-5.00;99.90;;;-5.72;94.85;97182.91;173101;28;1119;-75
2021/12/08 00:28:41;;;;;;;6.66;3.82;;;-5.00;99.90;;;-5.74;94.98;97174.28;173138;28;898;-75
2021/12/08 00:28:47;;;;;;;7.33;4.00;;;-5.00;99.90;;;-5.84;94.56;97161.84;172650;28;1396;-75
2021/12/08 00:28:53;;;;;;;8.05;4.22;;;-5.00;99.90;;;-5.73;94.77;97173.34;172919;28;1618;-75
2021/12/08 00:28:59;;;;;;;7.47;4.38;;;-5.00;99.90;;;-5.73;94.77;97185.63;173042;28;1075;-75
2021/12/08 00:29:05;;;;;;;7.55;4.28;;;-5.00;99.90;;;-5.71;94.72;97181.97;173083;28;1436;-75
2021/12/08 00:29:11;;;;;;;8.68;4.22;;;-5.00;99.90;;;-5.72;94.62;97179.44;173651;28;1052;-75
2021/12/08 00:29:17;;;;;;;8.83;4.33;;;-5.00;99.90;;;-5.71;94.34;97186.38;173138;28;1178;-75
2021/12/08 00:29:23;;;;;;;9.25;4.47;;;-5.00;99.90;;;-5.79;94.79;97165.00;173203;28;927;-75
2021/12/08 00:29:29;;;;;;;9.27;4.28;;;-5.00;99.90;;;-5.69;94.69;97189.72;171710;28;1227;-75
2021/12/08 00:29:35;;;;;;;8.75;4.47;;;-5.00;99.90;;;-5.76;94.72;97167.47;172333;28;1034;-75
2021/12/08 00:29:41;;;;;;;8.70;4.83;;;-5.00;99.90;;;-5.72;94.50;97176.81;172239;28;1240;-75
2021/12/08 00:29:47;;;;;;;8.20;4.80;;;-5.00;99.90;;;-5.71;94.95;97183.75;173105;28;1417;-75
2021/12/08 00:29:53;;;;;;;7.85;4.55;;;-5.00;99.90;;;-5.79;95.08;97170.25;172854;28;1619;-75
2021/12/08 00:29:59;;;;;;;9.13;4.57;;;-5.00;99.90;;;-5.67;94.70;97187.84;173143;28;911;-75
2021/12/08 00:30:07;;;;;;;9.15;4.72;;;-5.00;99.90;;;-5.70;94.66;97185.44;172197;28;1195;-75
2021/12/08 00:30:13;;;;;;;9.22;4.72;;;-5.00;99.90;;;-5.68;94.76;97186.16;172577;28;939;-75
2021/12/08 00:30:20;;;;;;;8.90;4.50;;;-5.00;99.90;;;-5.76;94.58;97181.41;173033;28;1408;-75
2021/12/08 00:30:27;;;;;;;7.30;4.63;;;-5.00;99.90;;;-5.71;94.76;97181.97;173284;28;855;-75
2021/12/08 00:30:37;;;;;;;6.43;4.52;;;-5.00;99.90;;;-5.71;94.57;97186.38;172871;28;1473;-75
2021/12/08 00:30:49;;;;;;;5.59;4.14;;;-5.00;99.90;;;-5.82;94.75;97165.22;171726;28;1354;-75
2021/12/08 00:31:00;;;;;;;7.47;4.51;;;-5.00;99.90;;;-5.68;94.64;97192.25;173060;28;1711;-75
2021/12/08 00:31:07;;;;;;;7.96;4.15;;;-5.00;99.90;;;-5.69;94.49;97190.56;173294;28;1195;-75
2021/12/08 00:31:13;;;;;;;8.32;4.03;;;-5.00;99.90;;;-5.71;94.68;97187.22;173003;28;1466;-75
2021/12/08 00:31:19;;;;;;;8.50;3.87;;;-5.00;99.90;;;-5.86;94.87;97168.97;173200;28;1412;-75
2021/12/08 00:31:25;;;;;;;8.57;4.00;;;-5.00;99.90;;;-5.73;94.54;97183.00;173117;28;1310;-75
2021/12/08 00:31:33;;;;;;;8.68;4.38;;;-5.00;99.90;;;-5.79;94.60;97172.88;173790;28;1389;-75
2021/12/08 00:31:40;;;;;;;9.08;4.63;;;-5.00;99.90;;;-5.72;94.66;97189.94;172838;28;1424;-75
2021/12/08 00:31:47;;;;;;;8.57;4.77;;;-5.00;99.90;;;-5.80;94.39;97179.91;173936;28;895;-75
2021/12/08 00:31:53;;;;;;;8.27;4.30;;;-5.00;99.90;;;-5.82;94.53;97173.94;172996;28;1343;-75
2021/12/08 00:31:59;;;;;;;8.50;4.45;;;-5.10;99.90;;;-5.75;94.59;97180.47;171836;28;1785;-75
2021/12/08 00:32:08;;;;;;;9.33;4.40;;;-5.00;99.90;;;-5.71;94.26;97191.63;171967;28;1280;-75
2021/12/08 00:32:14;;;;;;;9.27;4.63;;;-5.00;99.90;;;-5.75;94.46;97190.94;173174;28;1505;-75
2021/12/08 00:32:25;;;;;;;9.13;4.95;;;-5.00;99.90;;;-5.74;94.66;97190.00;172600;28;1029;-75
2021/12/08 00:32:33;;;;;;;9.18;4.89;;;-5.00;99.90;;;-5.80;94.50;97184.31;172190;28;1409;-75
2021/12/08 00:32:39;;;;;;;8.63;4.92;;;-5.00;99.90;;;-5.79;94.43;97184.22;171893;28;1088;-74
2021/12/08 00:32:46;;;;;;;8.73;4.50;;;-5.10;99.90;;;-5.81;94.09;97175.63;172237;28;1114;-74
2021/12/08 00:32:53;;;;;;;8.96;4.30;;;-5.10;99.90;;;-5.85;93.98;97175.88;173885;28;1069;-75
2021/12/08 00:33:00;;;;;;;10.36;4.76;;;-5.10;99.90;;;-5.90;94.29;97162.25;173390;28;1298;-75
2021/12/08 00:33:07;;;;;;;9.27;4.63;;;-5.10;99.90;;;-5.87;94.06;97178.63;171916;28;1429;-75
2021/12/08 00:33:14;;;;;;;9.64;4.66;;;-5.10;99.90;;;-5.75;94.15;97187.50;172969;28;1440;-75
2021/12/08 00:33:21;;;;;;;10.40;4.70;;;-5.10;99.90;;;-5.77;94.36;97187.59;173267;28;985;-75
2021/12/08 00:33:29;;;;;;;8.23;3.90;;;-5.10;99.90;;;-5.84;94.36;97175.78;172528;28;992;-75
2021/12/08 00:33:36;;;;;;;8.98;4.03;;;-5.10;99.90;;;-5.88;94.29;97171.72;173438;28;1405;-75
2021/12/08 00:33:42;;;;;;;7.80;3.86;;;-5.10;99.90;;;-5.77;94.02;97189.38;173905;28;1071;-75
2021/12/08 00:33:48;;;;;;;7.60;4.30;;;-5.10;99.90;;;-5.81;94.21;97191.34;173907;28;1373;-75
2021/12/08 00:33:54;;;;;;;7.15;4.43;;;-5.10;99.90;;;-5.84;94.13;97177.56;173149;28;860;-75
2021/12/08 00:34:01;;;;;;;6.90;4.43;;;-5.10;99.90;;;-5.82;93.97;97183.56;173584;28;1707;-75
2021/12/08 00:34:07;;;;;;;6.87;4.40;;;-5.10;99.90;;;-5.86;94.21;97174.22;173770;28;1078;-75
2021/12/08 00:34:14;;;;;;;6.88;4.47;;;-5.10;99.90;;;-5.76;93.88;97189.28;173806;28;1439;-75
2021/12/08 00:34:20;;;;;;;6.12;4.10;;;-5.10;99.90;;;-5.81;93.95;97180.84;173109;28;1418;-75
2021/12/08 00:34:27;;;;;;;7.95;4.35;;;-5.10;99.90;;;-5.81;94.09;97185.25;173191;28;1244;-75
2021/12/08 00:34:32;;;;;;;8.67;4.37;;;-5.10;99.90;;;-5.92;94.20;97172.00;172588;28;1433;-75
2021/12/08 00:34:38;;;;;;;7.88;4.22;;;-5.10;99.90;;;-5.91;94.08;97161.44;172601;28;1608;-75